Time;durP1;ratioP1;P1;durP2;ratioP2;P2;SDS_P1;SDS_P2;PMS_P1;PMS_P2;Temp;Humidity;BMP_temperature;BMP_pressure;BME280_temperature;BME280_humidity;BME280_pressure;Samples;Min_cycle;Max_cycle;Signal;HPM_P1;HPM_P2
2021/05/24 00:00:07;;;;;;;19.52;10.88;;;;;;;7.43;86.82;101219.56;4991520;28;20042;-70
2021/05/24 00:02:33;;;;;;;15.38;10.65;;;;;;;7.36;86.89;101211.25;4991614;28;20049;-70
2021/05/24 00:04:58;;;;;;;13.93;10.00;;;;;;;7.48;86.64;101217.34;4974281;28;20367;-70
2021/05/24 00:07:23;;;;;;;17.00;10.80;;;;;;;7.40;86.19;101210.03;4974179;28;20097;-70
2021/05/24 00:09:49;;;;;;;19.00;10.60;;;;;;;7.36;86.73;101212.09;4991540;28;20038;-70
2021/05/24 00:12:14;;;;;;;14.47;9.97;;;;;;;7.37;86.74;101210.28;4991493;28;20046;-70
2021/05/24 00:14:41;;;;;;;18.00;11.83;;;;;;;7.31;86.71;101210.81;4974511;28;20057;-70
2021/05/24 00:17:06;;;;;;;16.45;10.70;;;;;;;7.32;86.65;101204.53;4991027;28;20043;-70
2021/05/24 00:19:32;;;;;;;15.57;10.75;;;;;;;7.31;86.77;101200.19;4991275;28;20462;-70
2021/05/24 00:21:57;;;;;;;16.33;10.77;;;;;;;7.36;86.29;101198.81;4974280;28;20049;-70
2021/05/24 00:24:23;;;;;;;16.73;11.37;;;;;;;7.34;86.36;101197.28;4991416;28;20045;-70
2021/05/24 00:26:48;;;;;;;15.97;10.90;;;;;;;7.37;85.85;101194.34;4973987;28;20034;-70
2021/05/24 00:29:19;;;;;;;14.13;9.87;;;;;;;7.36;86.03;101197.97;4958172;28;20531;-70
2021/05/24 00:31:45;;;;;;;17.48;11.52;;;;;;;7.30;86.15;101193.19;4991359;28;20038;-70
2021/05/24 00:34:10;;;;;;;21.40;11.35;;;;;;;7.29;86.16;101196.81;4991952;28;20514;-70
2021/05/24 00:36:36;;;;;;;15.07;10.67;;;;;;;7.32;86.14;101197.38;4977788;28;20116;-70
2021/05/24 00:39:02;;;;;;;14.97;10.60;;;;;;;7.28;86.26;101184.50;4978050;28;20089;-70
2021/05/24 00:41:27;;;;;;;17.70;9.98;;;;;;;7.30;86.15;101188.72;4995231;28;20046;-70
2021/05/24 00:43:53;;;;;;;16.40;10.80;;;;;;;7.33;85.95;101182.31;4978082;28;20042;-70
2021/05/24 00:46:19;;;;;;;18.30;11.33;;;;;;;7.34;86.14;101178.69;4994024;28;20048;-70
2021/05/24 00:48:44;;;;;;;14.65;9.43;;;;;;;7.36;86.10;101174.06;4994220;28;20032;-70
2021/05/24 00:51:09;;;;;;;13.63;9.43;;;;;;;7.36;85.96;101174.06;4961845;28;20424;-70
2021/05/24 00:53:35;;;;;;;18.63;11.67;;;;;;;7.31;86.02;101173.63;4977949;28;20145;-70
2021/05/24 00:56:00;;;;;;;15.20;9.93;;;;;;;7.31;85.76;101168.31;4994630;28;20444;-70
2021/05/24 00:58:26;;;;;;;14.13;9.67;;;;;;;7.32;85.66;101170.00;4994874;28;20213;-70
2021/05/24 01:00:51;;;;;;;20.27;11.17;;;;;;;7.25;85.53;101156.38;4977941;28;20050;-70
2021/05/24 01:03:16;;;;;;;17.10;10.77;;;;;;;7.23;85.60;101166.28;4994631;28;20133;-70
2021/05/24 01:05:44;;;;;;;16.97;11.30;;;;;;;7.26;85.67;101149.25;4994674;28;20057;-70
2021/05/24 01:08:11;;;;;;;17.50;11.20;;;;;;;7.25;85.58;101147.59;4961279;28;20121;-70
2021/05/24 01:10:36;;;;;;;22.00;11.48;;;;;;;7.22;85.73;101138.06;4977506;28;20100;-70
2021/05/24 01:13:05;;;;;;;16.27;10.43;;;;;;;7.20;85.65;101132.03;4994614;28;20444;-70
2021/05/24 01:15:31;;;;;;;14.40;9.38;;;;;;;7.18;85.41;101132.16;4995023;28;20038;-70
2021/05/24 01:17:56;;;;;;;23.30;11.13;;;;;;;7.16;85.74;101122.66;4994036;28;20042;-70
2021/05/24 01:20:23;;;;;;;17.67;10.00;;;;;;;7.18;85.37;101126.84;4977302;28;20038;-70
2021/05/24 01:22:58;;;;;;;14.60;10.07;;;;;;;7.17;85.79;101122.53;4977409;28;20038;-70
2021/05/24 01:25:25;;;;;;;19.75;10.85;;;;;;;7.13;85.72;101118.44;4994492;28;20368;-70
2021/05/24 01:27:51;;;;;;;18.60;10.52;;;;;;;7.08;85.51;101117.16;4993098;28;20030;-70
2021/05/24 01:30:17;;;;;;;16.27;9.50;;;;;;;7.06;85.93;101125.25;4976998;28;20096;-70
2021/05/24 01:32:42;;;;;;;14.88;9.93;;;;;;;7.06;85.98;101111.97;4977053;28;20046;-70
2021/05/24 01:35:08;;;;;;;13.67;10.20;;;;;;;7.04;85.90;101107.78;4977295;28;20033;-70
2021/05/24 01:37:33;;;;;;;12.52;9.20;;;;;;;7.04;85.89;101116.56;4993832;28;20038;-70
2021/05/24 01:40:00;;;;;;;14.30;9.53;;;;;;;7.03;85.07;101109.59;4960912;28;20060;-70
2021/05/24 01:42:26;;;;;;;18.50;8.75;;;;;;;7.05;84.67;101112.97;4976962;28;20451;-70
2021/05/24 01:44:51;;;;;;;13.37;8.07;;;;;;;7.10;83.92;101112.56;4976258;28;20112;-70
2021/05/24 01:47:16;;;;;;;12.63;8.03;;;;;;;7.18;83.54;101110.09;4976696;28;20121;-70
2021/05/24 01:49:47;;;;;;;14.40;8.00;;;;;;;7.18;82.91;101120.72;4993915;28;20399;-70
2021/05/24 01:52:14;;;;;;;14.63;8.32;;;;;;;7.21;82.93;101111.63;4994042;28;20038;-70
2021/05/24 01:54:41;;;;;;;46.13;7.50;;;;;;;7.29;81.89;101110.00;4993895;28;20042;-70
2021/05/24 01:57:07;;;;;;;10.85;5.85;;;;;;;7.32;81.81;101106.25;4976372;28;20498;-70
2021/05/24 01:59:32;;;;;;;9.25;6.78;;;;;;;7.28;82.01;101104.81;4993714;28;20161;-70
2021/05/24 02:01:57;;;;;;;15.47;7.27;;;;;;;7.35;81.37;101098.00;4976636;28;20121;-70
2021/05/24 02:04:23;;;;;;;9.40;6.47;;;;;;;7.38;81.45;101105.72;4976475;28;20097;-70
2021/05/24 02:06:48;;;;;;;14.63;7.63;;;;;;;7.35;80.88;101093.56;4976410;28;20064;-70
2021/05/24 02:09:13;;;;;;;10.80;6.13;;;;;;;7.37;80.85;101096.06;4976425;28;20045;-70
2021/05/24 02:11:39;;;;;;;11.73;6.70;;;;;;;7.36;81.11;101097.03;4993619;28;20038;-70
2021/05/24 02:14:05;;;;;;;9.32;6.32;;;;;;;7.36;81.31;101097.03;4993430;28;20042;-70
2021/05/24 02:16:45;;;;;;;16.92;6.38;;;;;;;7.36;81.19;101095.22;4993076;28;20116;-70
2021/05/24 02:19:13;;;;;;;9.85;5.53;;;;;;;7.46;80.36;101087.28;4993552;28;20462;-70
2021/05/24 02:21:39;;;;;;;10.90;6.20;;;;;;;7.56;79.47;101085.53;4976383;28;20066;-70
2021/05/24 02:24:09;;;;;;;11.68;6.25;;;;;;;7.61;78.55;101080.66;4976266;28;20069;-70
2021/05/24 02:26:37;;;;;;;14.35;6.03;;;;;;;7.60;78.84;101084.25;4975837;28;20049;-70
2021/05/24 02:29:04;;;;;;;10.85;5.00;;;;;;;7.63;78.59;101083.16;4993411;28;20410;-70
2021/05/24 02:31:30;;;;;;;7.60;4.68;;;;;;;7.65;78.50;101081.19;4976129;28;20124;-70
2021/05/24 02:33:56;;;;;;;8.23;5.10;;;;;;;7.60;78.32;101084.25;4993487;28;20038;-70
2021/05/24 02:36:24;;;;;;;10.80;5.53;;;;;;;7.63;78.32;101077.00;4975737;28;20129;-70
2021/05/24 02:38:49;;;;;;;8.82;4.45;;;;;;;7.71;77.66;101078.00;4976037;28;20042;-70
2021/05/24 02:41:15;;;;;;;6.57;4.73;;;;;;;7.74;77.73;101077.72;4975688;28;20049;-70
2021/05/24 02:43:40;;;;;;;10.30;4.63;;;;;;;7.71;78.03;101080.66;4975891;28;20277;-70
2021/05/24 02:46:06;;;;;;;7.63;4.20;;;;;;;7.71;77.98;101080.66;4975965;28;20038;-70
2021/05/24 02:48:31;;;;;;;9.90;4.97;;;;;;;7.67;78.37;101081.91;4976175;28;20809;-70
2021/05/24 02:50:57;;;;;;;6.37;4.60;;;;;;;7.66;78.34;101074.09;4993241;28;20034;-70
2021/05/24 02:53:23;;;;;;;9.93;5.55;;;;;;;7.66;78.35;101082.91;4993303;28;20476;-70
2021/05/24 02:55:48;;;;;;;5.03;4.50;;;;;;;7.65;78.85;101081.19;4992958;28;20038;-70
2021/05/24 02:58:13;;;;;;;8.40;4.60;;;;;;;7.60;78.95;101076.28;4991864;28;20062;-70
2021/05/24 03:00:39;;;;;;;11.30;5.50;;;;;;;7.55;79.32;101081.16;4976140;28;20077;-70
2021/05/24 03:03:04;;;;;;;13.13;4.87;;;;;;;7.54;79.72;101074.19;4993096;28;20128;-70
2021/05/24 03:05:30;;;;;;;8.27;4.77;;;;;;;7.56;79.62;101066.06;4959894;28;20096;-70
2021/05/24 03:07:55;;;;;;;9.80;6.55;;;;;;;7.57;79.59;101067.75;4992790;28;20509;-70
2021/05/24 03:10:23;;;;;;;11.37;5.83;;;;;;;7.55;79.37;101070.53;4992982;28;20072;-70
2021/05/24 03:12:49;;;;;;;8.43;4.72;;;;;;;7.57;79.37;101057.97;4992880;28;20041;-70
2021/05/24 03:15:17;;;;;;;9.10;4.75;;;;;;;7.58;79.18;101062.28;4975798;28;20034;-70
2021/05/24 03:17:44;;;;;;;10.82;4.75;;;;;;;7.60;79.21;101062.16;4992289;28;20361;-70
2021/05/24 03:20:10;;;;;;;;;;;;;;;7.58;79.57;101064.94;4993228;28;20030;-70
2021/05/24 03:22:36;;;;;;;13.43;5.57;;;;;;;7.58;79.53;101059.63;4959507;28;19917;-70
2021/05/24 03:25:03;;;;;;;6.80;4.72;;;;;;;7.59;79.62;101058.69;4959387;28;20483;-70
2021/05/24 03:27:28;;;;;;;10.07;5.35;;;;;;;7.47;79.73;101041.16;4975180;28;20109;-70
2021/05/24 03:29:54;;;;;;;9.93;5.07;;;;;;;7.46;80.06;101055.41;4975510;28;20250;-69
2021/05/24 03:32:19;;;;;;;9.30;5.78;;;;;;;7.49;80.37;101049.84;4992519;28;20034;-70
2021/05/24 03:34:45;;;;;;;6.00;4.80;;;;;;;7.47;80.10;101056.25;4959332;28;20917;-70
2021/05/24 03:37:10;;;;;;;7.33;5.17;;;;;;;7.48;80.15;101058.78;4975050;28;20045;-70
2021/05/24 03:39:35;;;;;;;9.80;4.63;;;;;;;7.54;79.67;101055.59;4975296;28;20053;-70
2021/05/24 03:42:01;;;;;;;7.73;4.27;;;;;;;7.56;79.60;101069.59;4975365;28;20038;-70
2021/05/24 03:44:26;;;;;;;7.30;4.73;;;;;;;7.60;79.66;101068.31;4992421;28;20034;-70
2021/05/24 03:46:52;;;;;;;9.87;5.30;;;;;;;7.61;79.71;101072.69;4975150;28;20034;-70
2021/05/24 03:49:17;;;;;;;6.20;4.83;;;;;;;7.69;79.02;101066.66;4975342;28;20464;-70
2021/05/24 03:51:43;;;;;;;8.88;4.55;;;;;;;7.80;78.91;101066.56;4992282;28;20038;-70
2021/05/24 03:54:08;;;;;;;6.28;4.13;;;;;;;7.85;78.33;101060.84;4992078;28;20124;-70
2021/05/24 03:56:34;;;;;;;7.83;4.80;;;;;;;7.87;78.14;101058.88;4991772;28;20069;-70
2021/05/24 03:59:00;;;;;;;7.77;4.13;;;;;;;7.91;77.71;101065.59;4975065;28;20030;-69
2021/05/24 04:01:25;;;;;;;12.15;4.47;;;;;;;7.94;77.41;101062.69;4975024;28;20042;-70
2021/05/24 04:03:52;;;;;;;8.60;3.60;;;;;;;8.01;76.76;101069.13;4959014;28;20034;-70
2021/05/24 04:06:18;;;;;;;6.00;4.10;;;;;;;8.12;76.72;101073.44;4974736;28;20173;-69
2021/05/24 04:08:45;;;;;;;7.57;3.45;;;;;;;8.17;76.73;101071.25;4991770;28;20062;-70
2021/05/24 04:11:12;;;;;;;6.88;3.50;;;;;;;8.21;76.09;101071.78;4992025;28;20041;-69
2021/05/24 04:13:38;;;;;;;6.15;3.40;;;;;;;8.27;75.42;101073.91;4992006;28;20054;-70
2021/05/24 04:16:03;;;;;;;4.65;3.13;;;;;;;8.32;75.55;101074.31;4974523;28;20447;-70
2021/05/24 04:18:33;;;;;;;8.52;4.10;;;;;;;8.38;75.69;101072.91;4958639;28;20042;-69
2021/05/24 04:20:59;;;;;;;6.88;4.05;;;;;;;8.31;75.39;101062.00;4991950;28;20116;-70
2021/05/24 04:23:25;;;;;;;7.53;4.32;;;;;;;8.34;75.24;101061.72;4958600;28;20423;-70
2021/05/24 04:25:50;;;;;;;5.18;3.35;;;;;;;8.34;75.43;101055.56;4974592;28;20038;-69
2021/05/24 04:28:16;;;;;;;12.63;4.72;;;;;;;8.28;75.23;101048.13;4958407;28;20042;-70
2021/05/24 04:30:42;;;;;;;8.43;4.70;;;;;;;8.32;75.72;101053.03;4974642;28;20088;-69
2021/05/24 04:33:08;;;;;;;7.22;3.95;;;;;;;8.42;75.82;101042.41;4974535;28;20451;-70
2021/05/24 04:35:33;;;;;;;4.03;3.63;;;;;;;8.57;75.52;101040.16;4991651;28;20049;-70
2021/05/24 04:37:59;;;;;;;9.23;4.67;;;;;;;8.50;75.77;101044.38;4991295;28;20713;-70
2021/05/24 04:40:24;;;;;;;6.93;4.03;;;;;;;8.53;75.78;101042.28;4974692;28;20034;-70
2021/05/24 04:42:50;;;;;;;9.83;3.97;;;;;;;8.51;76.00;101038.06;4991651;28;20042;-70
2021/05/24 04:45:16;;;;;;;5.77;4.20;;;;;;;8.58;76.12;101041.84;4991385;28;20061;-70
2021/05/24 04:47:42;;;;;;;8.63;4.88;;;;;;;8.58;75.22;101033.88;4973868;28;20066;-70
2021/05/24 04:50:08;;;;;;;4.20;2.90;;;;;;;8.60;74.97;101029.25;4991160;28;20069;-70
2021/05/24 04:52:34;;;;;;;4.63;3.75;;;;;;;8.72;75.34;101030.75;4973913;28;20057;-70
2021/05/24 04:55:00;;;;;;;7.68;3.88;;;;;;;8.59;74.85;101025.75;4973868;28;20042;-70
2021/05/24 04:57:25;;;;;;;9.23;3.50;;;;;;;8.73;74.41;101029.75;4990731;28;20034;-70
2021/05/24 04:59:50;;;;;;;11.27;3.67;;;;;;;8.82;73.80;101028.91;4973961;28;20120;-70
2021/05/24 05:02:16;;;;;;;6.30;4.17;;;;;;;8.81;73.91;101021.91;4973932;28;20367;-70
2021/05/24 05:04:41;;;;;;;8.10;3.43;;;;;;;8.94;73.78;101026.91;4990879;28;20038;-70
2021/05/24 05:07:07;;;;;;;7.73;3.80;;;;;;;9.02;73.32;101029.69;4973448;28;20281;-70
2021/05/24 05:09:32;;;;;;;8.47;4.00;;;;;;;9.05;74.00;101025.91;4957691;28;20038;-70
2021/05/24 05:11:57;;;;;;;5.63;3.63;;;;;;;8.95;74.12;101017.94;4990925;28;20188;-70
2021/05/24 05:14:24;;;;;;;4.63;3.75;;;;;;;8.96;74.32;101021.44;4973520;28;20125;-70
2021/05/24 05:16:50;;;;;;;6.32;4.15;;;;;;;9.11;73.15;101020.00;4972609;28;20094;-70
2021/05/24 05:19:16;;;;;;;5.40;3.33;;;;;;;9.20;73.82;101012.94;4989920;28;20561;-70
2021/05/24 05:21:51;;;;;;;12.30;4.25;;;;;;;9.23;73.72;101015.31;4993153;28;20046;-70
2021/05/24 05:24:17;;;;;;;7.47;4.10;;;;;;;9.22;73.77;101017.13;4994094;28;20042;-70
2021/05/24 05:26:43;;;;;;;;;;;;;;;9.50;73.69;101011.78;4993792;28;20374;-70
2021/05/24 05:29:08;;;;;;;;;;;;;;;9.41;73.33;101007.34;4977000;28;19980;-70
2021/05/24 05:31:33;;;;;;;6.13;3.87;;;;;;;9.44;73.79;101012.41;4994217;28;19924;-70
2021/05/24 05:33:59;;;;;;;8.10;3.00;;;;;;;9.54;72.90;101009.69;4993818;28;20480;-70
2021/05/24 05:36:26;;;;;;;6.50;3.00;;;;;;;9.72;73.28;101008.72;4976794;28;20427;-70
2021/05/24 05:38:51;;;;;;;6.05;3.58;;;;;;;9.79;71.83;101000.97;4960815;28;20073;-70
2021/05/24 05:41:16;;;;;;;8.13;3.10;;;;;;;9.89;71.11;101000.91;4994115;28;20380;-70
2021/05/24 05:43:42;;;;;;;4.27;2.77;;;;;;;9.85;71.23;101002.19;4994069;28;20117;-69
2021/05/24 05:46:08;;;;;;;3.20;2.27;;;;;;;10.12;70.21;100998.59;4993703;28;20027;-70
2021/05/24 05:48:33;;;;;;;4.38;3.20;;;;;;;10.63;67.84;101002.38;4976765;28;20035;-69
2021/05/24 05:50:59;;;;;;;8.90;3.57;;;;;;;10.83;67.85;101002.16;4994073;28;20034;-69
2021/05/24 05:53:24;;;;;;;3.00;2.37;;;;;;;10.55;68.41;100997.81;4976812;28;20046;-69
2021/05/24 05:55:52;;;;;;;6.77;2.50;;;;;;;10.77;69.37;100993.78;4976578;28;20463;-70
2021/05/24 05:58:17;;;;;;;5.40;2.28;;;;;;;10.65;67.54;101002.19;4993882;28;20066;-69
2021/05/24 06:00:43;;;;;;;5.70;2.50;;;;;;;10.59;68.17;101006.34;4977132;28;20089;-69
2021/05/24 06:03:09;;;;;;;2.57;2.00;;;;;;;10.98;67.49;101000.59;4994087;28;20042;-69
2021/05/24 06:05:36;;;;;;;4.43;2.25;;;;;;;11.12;66.45;100991.13;4993973;28;20391;-70
2021/05/24 06:08:01;;;;;;;3.30;2.95;;;;;;;11.54;64.54;100988.47;4976816;28;20117;-70
2021/05/24 06:10:26;;;;;;;3.20;2.57;;;;;;;12.43;62.64;100989.59;4994009;28;20183;-70
2021/05/24 06:12:52;;;;;;;10.37;3.47;;;;;;;13.35;59.30;100989.19;4976961;28;20076;-70
2021/05/24 06:15:18;;;;;;;3.17;1.90;;;;;;;13.36;59.46;100988.16;4976858;28;20046;-71
2021/05/24 06:17:44;;;;;;;5.93;2.88;;;;;;;13.84;58.20;100982.72;4993433;28;20050;-70
2021/05/24 06:20:10;;;;;;;8.80;2.53;;;;;;;14.23;58.35;100985.25;4993893;28;20048;-71
2021/05/24 06:22:36;;;;;;;3.08;1.90;;;;;;;14.17;58.40;100990.53;4976775;28;20057;-71
2021/05/24 06:25:02;;;;;;;6.27;2.17;;;;;;;14.22;56.26;100988.97;4976910;28;20046;-71
2021/05/24 06:27:27;;;;;;;3.65;2.65;;;;;;;13.83;57.42;100987.22;4960231;28;20030;-71
2021/05/24 06:29:53;;;;;;;6.30;2.43;;;;;;;13.81;56.92;100983.06;4960575;28;20174;-71
2021/05/24 06:32:18;;;;;;;3.73;2.10;;;;;;;13.82;58.12;100985.56;4993531;28;20040;-71
2021/05/24 06:34:43;;;;;;;8.37;2.33;;;;;;;14.13;57.68;100982.00;4993644;28;20096;-71
2021/05/24 06:37:09;;;;;;;4.83;1.60;;;;;;;14.61;54.78;100987.97;4976130;28;20076;-71
2021/05/24 06:39:34;;;;;;;3.37;2.00;;;;;;;14.86;55.12;100985.03;4976481;28;20096;-71
2021/05/24 06:41:59;;;;;;;4.13;1.90;;;;;;;15.59;54.42;100977.88;4993490;28;20049;-72
2021/05/24 06:44:25;;;;;;;3.20;2.17;;;;;;;15.60;52.81;100969.63;4959721;28;20034;-71
2021/05/24 06:46:50;;;;;;;3.10;1.67;;;;;;;15.93;51.63;100965.66;4975458;28;20201;-72
2021/05/24 06:49:16;;;;;;;3.07;1.60;;;;;;;14.87;54.06;100962.53;4992829;28;20050;-71
2021/05/24 06:51:42;;;;;;;7.55;2.45;;;;;;;14.73;55.74;100970.38;4959463;28;20061;-71
2021/05/24 06:54:07;;;;;;;3.80;1.33;;;;;;;15.03;54.35;100964.16;4992800;28;20375;-71
2021/05/24 06:56:32;;;;;;;5.10;2.00;;;;;;;14.15;56.55;100963.84;4992722;28;20054;-71
2021/05/24 06:58:58;;;;;;;4.63;2.00;;;;;;;14.55;54.50;100967.22;4975618;28;20034;-71
2021/05/24 07:01:23;;;;;;;3.27;1.80;;;;;;;15.14;54.65;100971.75;4959562;28;20144;-71
2021/05/24 07:03:48;;;;;;;4.10;2.00;;;;;;;15.19;52.64;100962.13;4958411;28;20113;-72
2021/05/24 07:06:14;;;;;;;2.20;1.60;;;;;;;15.02;53.22;100967.88;4974077;28;20109;-72
2021/05/24 07:08:39;;;;;;;6.27;1.87;;;;;;;14.56;54.89;100960.81;4958849;28;20095;-72
2021/05/24 07:11:04;;;;;;;4.67;1.60;;;;;;;14.23;55.12;100955.72;4974820;28;20045;-72
2021/05/24 07:13:30;;;;;;;3.43;1.60;;;;;;;14.78;54.73;100961.78;4992542;28;20060;-72
2021/05/24 07:15:55;;;;;;;2.73;1.13;;;;;;;14.33;55.10;100952.78;4992459;28;20071;-72
2021/05/24 07:18:21;;;;;;;2.77;1.40;;;;;;;14.66;54.93;100952.50;4975502;28;20471;-71
2021/05/24 07:20:47;;;;;;;4.17;1.10;;;;;;;14.79;54.13;100944.63;4975710;28;20044;-71
2021/05/24 07:23:14;;;;;;;2.53;1.27;;;;;;;14.26;56.00;100957.22;4992651;28;20466;-71
2021/05/24 07:25:40;;;;;;;2.30;1.45;;;;;;;14.05;54.94;100949.84;4992361;28;20038;-72
2021/05/24 07:28:06;;;;;;;2.28;1.60;;;;;;;13.90;55.52;100945.25;4992148;28;20051;-71
2021/05/24 07:30:31;;;;;;;3.90;1.77;;;;;;;14.39;54.53;100949.38;4992701;28;20034;-72
2021/05/24 07:32:57;;;;;;;5.00;1.50;;;;;;;14.30;54.78;100940.53;4975289;28;20042;-71
2021/05/24 07:35:22;;;;;;;3.03;1.37;;;;;;;14.43;54.25;100934.56;4992661;28;20468;-71
2021/05/24 07:37:47;;;;;;;3.17;1.47;;;;;;;14.74;53.39;100941.66;4992034;28;20042;-71
2021/05/24 07:40:13;;;;;;;1.73;1.33;;;;;;;14.76;53.49;100940.44;4992028;28;20042;-72
2021/05/24 07:42:38;;;;;;;5.38;1.30;;;;;;;15.87;51.56;100924.16;4974156;28;20041;-72
2021/05/24 07:45:05;;;;;;;5.70;1.37;;;;;;;16.06;50.81;100921.84;4991538;28;20403;-72
2021/05/24 07:47:31;;;;;;;1.42;1.00;;;;;;;15.83;53.05;100922.91;4974294;28;20130;-72
2021/05/24 07:49:56;;;;;;;4.03;1.70;;;;;;;15.94;51.24;100916.97;4958401;28;20071;-72
2021/05/24 07:52:22;;;;;;;2.23;1.73;;;;;;;15.94;51.03;100905.38;4975088;28;20356;-72
2021/05/24 07:54:47;;;;;;;2.87;1.60;;;;;;;16.30;49.71;100916.06;4991816;28;20034;-72
2021/05/24 07:57:12;;;;;;;1.97;1.23;;;;;;;16.25;50.20;100913.13;4974803;28;20105;-71
2021/05/24 07:59:38;;;;;;;2.83;1.47;;;;;;;16.00;51.19;100912.69;4992480;28;20612;-72
2021/05/24 08:02:06;;;;;;;2.03;1.27;;;;;;;15.97;51.48;100916.63;4974426;28;20121;-72
2021/05/24 08:04:31;;;;;;;4.30;1.52;;;;;;;16.41;51.67;100902.03;4991495;28;20045;-72
2021/05/24 08:06:57;;;;;;;5.40;1.10;;;;;;;16.78;49.53;100913.44;4974279;28;20034;-72
2021/05/24 08:09:22;;;;;;;1.67;1.10;;;;;;;16.59;48.93;100912.28;4991590;28;20034;-72
2021/05/24 08:11:49;;;;;;;2.33;1.37;;;;;;;16.86;49.34;100907.94;4991547;28;20041;-72
2021/05/24 08:14:15;;;;;;;1.10;0.88;;;;;;;16.78;49.86;100910.75;4958296;28;20038;-72
2021/05/24 08:16:44;;;;;;;3.20;1.20;;;;;;;16.79;49.55;100914.31;4974432;28;20077;-72
2021/05/24 08:19:10;;;;;;;1.90;1.05;;;;;;;16.88;49.46;100903.16;4974721;28;20038;-72
2021/05/24 08:21:35;;;;;;;3.00;1.35;;;;;;;17.02;49.45;100895.97;4991309;28;20085;-72
2021/05/24 08:24:01;;;;;;;2.83;1.23;;;;;;;16.98;49.23;100893.88;4991759;28;20041;-72
2021/05/24 08:26:26;;;;;;;1.50;1.00;;;;;;;17.30;47.63;100887.78;4991544;28;20340;-72
2021/05/24 08:28:52;;;;;;;2.63;1.20;;;;;;;16.92;48.19;100875.78;4958611;28;20058;-72
2021/05/24 08:31:17;;;;;;;3.77;1.60;;;;;;;17.37;47.77;100874.28;4974440;28;20053;-72
2021/05/24 08:33:43;;;;;;;1.93;1.37;;;;;;;17.53;46.88;100870.34;4991850;28;20030;-72
2021/05/24 08:36:08;;;;;;;4.10;1.17;;;;;;;17.84;48.04;100882.47;4974309;28;20280;-72
2021/05/24 08:38:34;;;;;;;3.47;1.10;;;;;;;17.43;45.15;100857.25;4991781;28;20049;-73
2021/05/24 08:41:06;;;;;;;2.72;0.80;;;;;;;17.30;47.20;100874.28;4974448;28;20054;-72
2021/05/24 08:43:32;;;;;;;4.57;0.93;;;;;;;17.58;46.86;100864.34;4974480;28;20395;-72
2021/05/24 08:45:58;;;;;;;;;;;;;;;18.00;45.02;100859.63;4956824;28;20038;-72
2021/05/24 08:48:24;;;;;;;;;;;;;;;17.66;45.69;100858.75;4958449;28;20262;-72
2021/05/24 08:50:49;;;;;;;;;;;;;;;17.55;44.97;100860.19;4974441;28;19914;-73
2021/05/24 08:53:14;;;;;;;6.47;2.20;;;;;;;18.09;45.53;100850.25;4958178;28;20426;-73
2021/05/24 08:55:40;;;;;;;4.73;0.93;;;;;;;17.48;45.88;100854.78;4992612;28;20038;-73
2021/05/24 08:58:08;;;;;;;3.57;0.90;;;;;;;17.39;46.41;100852.47;4977482;28;20057;-72
2021/05/24 09:00:34;;;;;;;5.90;1.20;;;;;;;17.99;45.03;100848.00;4961511;28;20382;-73
2021/05/24 09:02:59;;;;;;;2.37;1.20;;;;;;;17.26;46.52;100837.94;4977659;28;20034;-73
2021/05/24 09:05:32;;;;;;;1.93;0.90;;;;;;;18.04;46.02;100848.19;4977686;28;20077;-72
2021/05/24 09:08:04;;;;;;;1.10;0.90;;;;;;;17.63;45.94;100840.25;4961179;28;20026;-73
2021/05/24 09:10:31;;;;;;;4.53;0.77;;;;;;;18.35;46.30;100843.97;4977632;28;20073;-73
2021/05/24 09:12:57;;;;;;;6.10;1.48;;;;;;;18.43;43.25;100840.25;4977474;28;20046;-72
2021/05/24 09:15:25;;;;;;;4.85;0.90;;;;;;;18.39;43.36;100839.00;4977642;28;20030;-73
2021/05/24 09:17:53;;;;;;;2.13;1.40;;;;;;;18.79;44.59;100849.72;4994185;28;20204;-73
2021/05/24 09:20:35;;;;;;;2.60;0.80;;;;;;;18.30;41.63;100847.31;4977449;28;20042;-73
2021/05/24 09:23:13;;;;;;;2.55;0.52;;;;;;;17.94;42.94;100850.50;4977288;28;20121;-72
2021/05/24 09:25:58;;;;;;;1.98;0.60;;;;;;;18.79;42.37;100850.53;4977399;28;20173;-73
2021/05/24 09:28:46;;;;;;;2.63;0.90;;;;;;;18.77;41.14;100858.03;4994521;28;20444;-72
2021/05/24 09:31:21;;;;;;;1.90;0.52;;;;;;;18.81;42.31;100851.16;4976936;28;20027;-72
2021/05/24 09:33:50;;;;;;;1.70;0.82;;;;;;;18.81;41.48;100850.34;4993912;28;20042;-73
2021/05/24 09:36:16;;;;;;;0.88;0.73;;;;;;;18.80;41.23;100845.94;4992569;28;20069;-73
2021/05/24 09:38:46;;;;;;;;;;;;;;;19.23;41.48;100827.22;4977009;28;20125;-73
2021/05/24 09:41:13;;;;;;;2.45;0.90;;;;;;;19.39;41.32;100837.53;4960802;28;19922;-72
2021/05/24 09:43:41;;;;;;;1.67;0.95;;;;;;;18.68;41.48;100840.34;4976704;28;20045;-73
2021/05/24 09:46:11;;;;;;;0.95;0.75;;;;;;;19.08;40.76;100832.94;4976398;28;20038;-73
2021/05/24 09:48:38;;;;;;;1.67;0.90;;;;;;;19.31;40.45;100829.66;4976853;28;20034;-73
2021/05/24 09:51:06;;;;;;;2.95;0.80;;;;;;;19.66;40.20;100829.19;4976766;28;20117;-73
2021/05/24 09:53:32;;;;;;;3.33;0.85;;;;;;;19.15;40.37;100831.00;4993867;28;20348;-73
2021/05/24 09:56:14;;;;;;;1.60;1.10;;;;;;;18.71;41.97;100821.00;4976382;28;20101;-73
2021/05/24 09:58:40;;;;;;;1.23;0.82;;;;;;;19.95;39.58;100824.22;4976415;28;20307;-73
2021/05/24 10:01:22;;;;;;;1.50;0.82;;;;;;;19.89;40.11;100796.09;4976455;28;20038;-73
2021/05/24 10:03:56;;;;;;;1.80;0.60;;;;;;;19.52;42.87;100803.28;4976563;28;20452;-73
2021/05/24 10:06:21;;;;;;;1.23;0.70;;;;;;;20.07;39.95;100802.63;4975609;28;20137;-73
2021/05/24 10:08:47;;;;;;;0.40;0.40;;;;;;;20.28;38.94;100799.47;4993519;28;20105;-73
2021/05/24 10:11:12;;;;;;;2.50;0.70;;;;;;;19.64;39.81;100804.22;4976215;28;20049;-73
2021/05/24 10:13:38;;;;;;;1.63;0.50;;;;;;;19.17;40.49;100796.44;4976269;28;20266;-73
2021/05/24 10:16:05;;;;;;;2.47;0.60;;;;;;;19.43;40.83;100796.47;4975931;28;20038;-73
2021/05/24 10:18:32;;;;;;;2.88;1.25;;;;;;;19.13;39.74;100791.69;4960022;28;20069;-73
2021/05/24 10:21:00;;;;;;;5.45;1.08;;;;;;;19.88;39.35;100789.03;4993414;28;20319;-73
2021/05/24 10:23:29;;;;;;;10.13;1.40;;;;;;;19.90;38.69;100775.25;4993618;28;20053;-73
2021/05/24 10:25:58;;;;;;;2.65;1.20;;;;;;;20.29;38.98;100778.59;4976335;28;20113;-73
2021/05/24 10:28:25;;;;;;;1.52;0.70;;;;;;;19.73;40.08;100773.13;4960501;28;20035;-73
2021/05/24 10:30:51;;;;;;;3.20;0.70;;;;;;;19.86;40.75;100764.06;4960525;28;20465;-73
2021/05/24 10:33:16;;;;;;;5.25;0.93;;;;;;;19.81;39.59;100766.59;4993595;28;20120;-73
2021/05/24 10:35:44;;;;;;;4.63;0.80;;;;;;;19.77;38.75;100766.22;4993559;28;20061;-73
2021/05/24 10:38:27;;;;;;;2.85;0.68;;;;;;;20.03;40.49;100764.28;4976001;28;20122;-73
2021/05/24 10:41:13;;;;;;;5.65;1.48;;;;;;;20.83;38.58;100768.78;4976357;28;20049;-73
2021/05/24 10:43:46;;;;;;;1.17;0.47;;;;;;;20.79;38.49;100767.56;4960118;28;20376;-73
2021/05/24 10:46:23;;;;;;;0.73;0.55;;;;;;;21.04;37.91;100759.31;4959509;28;20448;-73
2021/05/24 10:49:11;;;;;;;2.88;0.80;;;;;;;19.83;39.59;100764.50;4959772;28;20048;-73
2021/05/24 10:51:48;;;;;;;1.15;0.50;;;;;;;19.61;39.89;100764.03;4976243;28;20042;-73
2021/05/24 10:54:20;;;;;;;0.77;0.60;;;;;;;19.74;39.71;100760.44;4992626;28;20034;-73
2021/05/24 10:57:04;;;;;;;1.52;0.68;;;;;;;19.79;40.27;100768.72;4992518;28;20392;-73
2021/05/24 10:59:39;;;;;;;1.70;0.60;;;;;;;19.92;39.85;100767.75;4975462;28;20038;-73
2021/05/24 11:02:08;;;;;;;0.80;0.50;;;;;;;19.89;40.12;100760.06;4975479;28;20042;-73
2021/05/24 11:05:06;;;;;;;2.20;0.80;;;;;;;19.55;40.60;100748.66;4992451;28;20395;-73
2021/05/24 11:07:43;;;;;;;6.40;1.20;;;;;;;18.96;42.30;100751.63;4948991;28;20061;-73
2021/05/24 11:10:16;;;;;;;1.10;0.80;;;;;;;20.74;39.43;100745.75;4975236;28;20073;-73
2021/05/24 11:13:05;;;;;;;3.20;1.50;;;;;;;21.14;37.88;100748.72;4975152;28;20038;-73
2021/05/24 11:15:33;;;;;;;2.83;0.77;;;;;;;21.38;37.16;100741.44;4970013;28;20046;-73
2021/05/24 11:17:58;;;;;;;4.15;1.10;;;;;;;20.05;39.91;100745.94;4991066;28;20069;-73
2021/05/24 11:20:50;;;;;;;4.83;0.97;;;;;;;20.00;39.71;100732.22;4975142;28;20081;-73
2021/05/24 11:23:25;;;;;;;2.72;0.80;;;;;;;21.22;36.94;100733.97;4991547;28;20070;-73
2021/05/24 11:25:59;;;;;;;3.30;0.65;;;;;;;21.28;37.56;100733.03;4975390;28;20053;-73
2021/05/24 11:28:37;;;;;;;2.30;0.95;;;;;;;19.32;39.89;100736.59;4992352;28;20515;-74